Time;durP1;ratioP1;P1;durP2;ratioP2;P2;SDS_P1;SDS_P2;PMS_P1;PMS_P2;Temp;Humidity;BMP_temperature;BMP_pressure;BME280_temperature;BME280_humidity;BME280_pressure;Samples;Min_cycle;Max_cycle;Signal;HPM_P1;HPM_P2
2022/03/12 00:01:04;;;;;;;10.33;6.80;;;7.10;27.20;;;9.20;27.12;101851.63;5025071;28;20628;-50
2022/03/12 00:03:32;;;;;;;10.43;6.87;;;7.00;27.20;;;9.16;27.24;101850.25;5026446;28;20241;-50
2022/03/12 00:06:00;;;;;;;10.70;6.37;;;7.00;27.20;;;9.15;27.29;101856.47;5025256;28;20200;-48
2022/03/12 00:11:34;;;;;;;10.30;6.73;;;6.90;27.30;;;9.04;27.26;101846.09;5022133;28;20266;-48
2022/03/12 00:14:05;;;;;;;9.27;6.60;;;6.90;27.30;;;9.05;27.00;101842.53;5024169;28;20571;-47
2022/03/12 00:16:34;;;;;;;6.77;5.63;;;6.90;27.40;;;9.03;27.33;101841.84;5029208;28;20293;-48
2022/03/12 00:19:06;;;;;;;7.23;6.23;;;6.80;27.40;;;8.93;27.36;101843.59;5033932;28;20194;-47
2022/03/12 00:21:35;;;;;;;7.30;6.10;;;6.80;27.50;;;8.90;27.36;101843.03;5051013;28;20289;-48
2022/03/12 00:24:05;;;;;;;9.97;6.73;;;6.70;27.50;;;8.91;27.40;101850.81;5049792;28;20695;-46
2022/03/12 00:26:33;;;;;;;7.60;6.43;;;6.70;27.50;;;8.81;27.55;101834.19;5039159;28;20651;-47
2022/03/12 00:29:01;;;;;;;11.90;6.50;;;6.70;27.60;;;8.79;27.59;101830.88;5038219;28;20207;-48
2022/03/12 00:31:29;;;;;;;8.07;6.10;;;6.70;27.60;;;8.80;27.55;101835.16;5038590;28;20669;-47
2022/03/12 00:33:58;;;;;;;8.17;7.07;;;6.70;27.60;;;8.77;27.59;101831.00;5037658;28;20353;-46
2022/03/12 00:36:25;;;;;;;10.00;6.50;;;6.60;27.60;;;8.76;27.63;101831.16;5035668;28;20238;-46
2022/03/12 00:38:53;;;;;;;8.93;7.07;;;6.60;27.60;;;8.74;27.58;101828.66;5037679;28;20196;-46
2022/03/12 00:41:20;;;;;;;9.53;6.33;;;6.60;27.60;;;8.72;27.63;101835.81;5037340;28;20551;-46
2022/03/12 00:43:48;;;;;;;10.33;6.57;;;6.50;27.60;;;8.73;27.50;101826.16;5037167;28;20218;-47
2022/03/12 00:46:15;;;;;;;7.07;5.60;;;6.50;27.50;;;8.73;27.62;101836.66;5036882;28;20190;-46
2022/03/12 00:48:42;;;;;;;8.07;6.70;;;6.50;27.60;;;8.77;27.64;101838.88;5037503;28;20245;-47
2022/03/12 00:51:12;;;;;;;7.93;6.47;;;6.50;27.70;;;8.80;27.68;101835.16;5037132;28;20217;-47
2022/03/12 00:53:41;;;;;;;9.20;6.27;;;6.50;27.60;;;8.84;27.18;101828.69;5018537;28;20192;-46
2022/03/12 00:56:09;;;;;;;8.10;6.23;;;6.50;27.60;;;8.82;27.60;101830.59;5022733;28;20184;-47
2022/03/12 00:58:37;;;;;;;7.77;6.33;;;6.50;27.60;;;8.85;27.35;101830.31;5029844;28;20226;-48
2022/03/12 01:01:06;;;;;;;9.43;6.57;;;6.50;27.60;;;8.86;27.41;101837.25;5031055;28;20248;-46
2022/03/12 01:03:33;;;;;;;10.77;7.10;;;6.50;28.10;;;8.84;27.24;101839.19;5030134;28;20251;-48
2022/03/12 01:06:04;;;;;;;8.00;6.67;;;6.50;27.60;;;8.72;27.23;101822.69;5023681;28;20199;-48
2022/03/12 01:08:36;;;;;;;8.87;6.17;;;6.40;27.50;;;8.72;27.05;101840.25;5024252;28;20554;-46
2022/03/12 01:11:08;;;;;;;8.90;6.33;;;6.40;27.50;;;8.69;27.63;101835.28;5038192;28;20213;-49
2022/03/12 01:13:36;;;;;;;7.83;6.00;;;6.40;27.50;;;8.64;27.62;101826.97;5038907;28;20202;-47
2022/03/12 01:16:05;;;;;;;7.73;6.70;;;6.40;27.60;;;8.64;27.47;101822.56;5038027;28;20204;-50
2022/03/12 01:18:38;;;;;;;8.80;6.70;;;6.40;27.80;;;8.53;27.45;101829.72;5038293;28;20191;-46
2022/03/12 01:21:11;;;;;;;7.73;6.07;;;6.40;27.70;;;8.49;27.68;101826.53;5038144;28;20190;-47
2022/03/12 01:23:40;;;;;;;7.27;6.13;;;6.30;27.80;;;8.55;27.69;101827.78;5037953;28;20206;-48
2022/03/12 01:26:10;;;;;;;8.97;6.03;;;6.30;27.80;;;8.63;27.61;101825.31;5017770;28;20201;-46
2022/03/12 01:28:38;;;;;;;8.13;6.20;;;6.30;27.80;;;8.63;27.78;101822.69;5018296;28;20193;-48
2022/03/12 01:31:05;;;;;;;10.00;5.90;;;6.30;27.90;;;8.57;27.78;101825.84;5017857;28;20678;-46
2022/03/12 01:33:33;;;;;;;8.67;6.27;;;6.20;27.90;;;8.56;27.89;101824.19;5018489;28;20231;-47
2022/03/12 01:36:01;;;;;;;7.97;6.47;;;6.30;28.00;;;8.47;27.77;101825.00;5018007;28;20191;-47
2022/03/12 01:38:32;;;;;;;6.73;5.77;;;6.20;27.90;;;8.51;27.84;101819.34;5018341;28;20258;-46
2022/03/12 01:41:03;;;;;;;10.43;6.50;;;6.20;27.90;;;8.55;27.70;101819.91;5018369;28;20211;-46
2022/03/12 01:43:32;;;;;;;8.30;6.90;;;6.20;28.00;;;8.55;27.81;101817.28;5017287;28;20192;-47
2022/03/12 01:46:01;;;;;;;8.47;6.07;;;6.20;28.00;;;8.50;27.42;101815.09;5015398;28;20664;-47
2022/03/12 01:48:30;;;;;;;7.87;6.03;;;6.10;28.10;;;8.50;27.71;101822.13;5018284;28;20279;-45
2022/03/12 01:50:58;;;;;;;8.47;6.90;;;6.20;28.10;;;8.45;27.76;101826.94;5017045;28;20196;-48
2022/03/12 01:53:27;;;;;;;8.83;6.00;;;6.10;28.20;;;8.42;27.75;101814.06;5016684;28;20286;-48
2022/03/12 01:55:56;;;;;;;8.00;6.07;;;6.10;28.20;;;8.41;28.11;101808.03;5017221;28;20572;-47
2022/03/12 01:58:24;;;;;;;9.57;6.77;;;6.10;28.20;;;8.45;28.08;101811.19;5017623;28;20244;-47
2022/03/12 02:00:53;;;;;;;7.67;6.03;;;6.10;28.30;;;8.46;28.12;101802.38;5017004;28;20228;-47
2022/03/12 02:03:26;;;;;;;11.33;6.70;;;6.00;28.30;;;8.43;27.78;101803.47;5016962;28;20654;-47
2022/03/12 02:05:54;;;;;;;8.70;6.00;;;6.00;28.30;;;8.42;27.82;101796.53;5016426;28;20199;-48
2022/03/12 02:08:22;;;;;;;8.13;6.00;;;6.00;28.80;;;8.41;27.81;101799.31;5015949;28;20211;-47
2022/03/12 02:10:51;;;;;;;6.80;6.00;;;6.00;28.30;;;8.36;27.93;101797.09;5016215;28;20192;-47
2022/03/12 02:13:18;;;;;;;9.00;6.23;;;6.00;28.40;;;8.35;27.87;101794.59;5017745;28;20346;-48
2022/03/12 02:15:47;;;;;;;8.70;6.23;;;6.00;28.40;;;8.34;28.08;101785.06;5015215;28;20597;-48
2022/03/12 02:18:15;;;;;;;9.67;6.03;;;6.00;28.50;;;8.29;27.94;101789.88;5014983;28;20221;-47
2022/03/12 02:20:43;;;;;;;9.77;6.37;;;5.90;28.40;;;8.23;28.04;101772.03;5015377;28;20192;-49
2022/03/12 02:23:11;;;;;;;10.13;7.20;;;5.90;28.40;;;8.23;28.04;101779.88;5014996;28;20188;-49
2022/03/12 02:25:39;;;;;;;9.23;6.83;;;5.90;28.40;;;8.23;28.09;101788.59;5014564;28;20196;-47
2022/03/12 02:28:19;;;;;;;8.10;6.43;;;5.90;28.40;;;8.12;28.43;101784.28;5014461;28;20208;-48
2022/03/12 02:30:57;;;;;;;11.60;6.53;;;5.80;28.40;;;8.09;28.46;101784.56;5016189;28;20207;-48
2022/03/12 02:33:27;;;;;;;8.23;6.33;;;5.80;28.40;;;8.15;28.10;101780.56;5014957;28;20243;-47
2022/03/12 02:35:57;;;;;;;8.63;6.23;;;5.80;28.40;;;8.15;28.04;101794.50;5014975;28;20231;-47
2022/03/12 02:38:26;;;;;;;9.70;6.40;;;5.80;28.50;;;8.14;27.92;101787.59;5014639;28;20685;-46
2022/03/12 02:40:55;;;;;;;9.03;5.47;;;5.80;28.60;;;8.13;28.04;101791.19;5016416;28;20196;-46
2022/03/12 02:43:26;;;;;;;7.83;5.90;;;5.80;28.60;;;8.15;27.96;101789.25;5015250;28;20622;-47
2022/03/12 02:45:57;;;;;;;8.77;6.57;;;5.80;28.60;;;8.13;28.12;101790.34;5015330;28;20196;-47
2022/03/12 02:48:25;;;;;;;8.43;5.63;;;5.80;28.50;;;8.04;28.53;101786.72;5015550;28;20327;-47
2022/03/12 02:50:53;;;;;;;8.10;6.07;;;5.70;28.50;;;8.05;27.92;101787.56;5014436;28;20196;-48
2022/03/12 02:53:21;;;;;;;7.87;5.60;;;5.70;28.50;;;8.00;28.28;101793.22;5014403;28;20310;-46
2022/03/12 02:55:51;;;;;;;6.40;5.23;;;5.70;28.50;;;7.96;28.64;101791.78;5014652;28;20188;-46
2022/03/12 02:58:19;;;;;;;11.40;6.57;;;5.70;28.50;;;7.91;28.17;101791.38;5013853;28;20212;-47
2022/03/12 03:00:47;;;;;;;9.23;5.73;;;5.60;28.50;;;7.88;28.54;101801.28;5015171;28;20199;-48
2022/03/12 03:03:15;;;;;;;10.07;6.03;;;5.60;28.50;;;7.90;28.61;101789.72;5016621;28;20243;-47
2022/03/12 03:05:46;;;;;;;6.53;5.73;;;5.60;28.50;;;7.85;28.43;101788.44;5015213;28;20203;-47
2022/03/12 03:08:20;;;;;;;6.23;5.53;;;5.60;28.50;;;7.78;28.23;101790.75;5014526;28;20211;-46
2022/03/12 03:10:51;;;;;;;6.03;5.37;;;5.60;28.50;;;7.72;28.05;101791.28;5015145;28;20198;-50
2022/03/12 03:13:37;;;;;;;5.93;5.07;;;5.50;28.40;;;7.77;28.85;101796.13;5015026;28;20214;-45
2022/03/12 03:16:09;;;;;;;7.13;5.73;;;5.60;28.60;;;7.76;28.05;101792.69;5015306;28;20234;-47
2022/03/12 03:18:39;;;;;;;6.33;5.57;;;5.50;28.40;;;7.68;28.39;101787.25;5014095;28;20642;-46
2022/03/12 03:21:12;;;;;;;7.27;5.50;;;5.50;28.50;;;7.65;28.34;101795.41;5015062;28;20199;-48
2022/03/12 03:23:46;;;;;;;6.83;5.57;;;5.50;28.40;;;7.69;28.85;101802.03;5020023;28;20184;-47
2022/03/12 03:26:20;;;;;;;6.93;5.23;;;5.50;28.40;;;7.70;28.87;101797.63;5014055;28;20198;-48
2022/03/12 03:28:48;;;;;;;7.17;5.47;;;5.50;28.50;;;7.73;28.08;101806.03;5014150;28;20188;-47
2022/03/12 03:31:17;;;;;;;8.23;5.23;;;5.50;28.50;;;7.70;28.58;101811.53;5014347;28;20191;-47
2022/03/12 03:33:45;;;;;;;7.13;5.43;;;5.50;28.40;;;7.66;28.74;101793.56;5014449;28;20216;-48
2022/03/12 03:36:13;;;;;;;6.73;5.60;;;5.40;28.40;;;7.63;28.60;101807.75;5019346;28;20677;-46
2022/03/12 03:38:40;;;;;;;8.13;5.83;;;5.40;28.40;;;7.64;28.53;101804.19;5013887;28;20191;-46
2022/03/12 03:41:07;;;;;;;6.07;5.30;;;5.40;28.50;;;7.63;28.27;101801.72;5013990;28;20188;-47
2022/03/12 03:43:34;;;;;;;7.37;5.47;;;5.40;28.50;;;7.56;28.73;101806.63;5013654;28;20184;-48
2022/03/12 03:46:06;;;;;;;7.33;5.43;;;5.40;28.40;;;7.60;28.32;101808.03;5013691;28;20688;-50
2022/03/12 03:48:38;;;;;;;7.23;5.50;;;5.30;28.50;;;7.54;28.58;101792.81;5014717;28;20272;-48
2022/03/12 03:51:05;;;;;;;7.13;5.40;;;5.30;28.40;;;7.41;28.79;101800.06;5017647;28;20217;-47
2022/03/12 03:53:33;;;;;;;7.70;5.57;;;5.30;28.40;;;7.40;28.90;101785.28;5032609;28;20719;-48
2022/03/12 03:56:01;;;;;;;12.27;5.87;;;5.20;28.40;;;7.32;28.62;101799.03;5020372;28;20196;-47
2022/03/12 03:58:30;;;;;;;7.23;5.30;;;5.20;28.40;;;7.31;29.18;101797.38;5020245;28;20630;-48
2022/03/12 04:00:59;;;;;;;7.33;5.70;;;5.20;28.50;;;7.26;29.09;101794.31;5020758;28;20243;-46
2022/03/12 04:03:33;;;;;;;8.33;5.47;;;5.20;28.50;;;7.33;28.23;101792.00;5020360;28;20196;-47
2022/03/12 04:06:03;;;;;;;8.73;5.57;;;5.20;28.50;;;7.41;28.19;101798.28;5020999;28;20608;-46
2022/03/12 04:08:33;;;;;;;6.70;5.17;;;5.20;28.50;;;7.43;28.33;101803.38;5021572;28;20192;-47
2022/03/12 04:11:04;;;;;;;8.07;5.40;;;5.20;28.40;;;7.44;28.08;101805.06;5021664;28;20192;-47
2022/03/12 04:13:33;;;;;;;8.20;6.30;;;5.20;28.40;;;7.41;27.92;101810.53;5022023;28;20240;-48
2022/03/12 04:16:06;;;;;;;7.23;5.37;;;5.20;28.30;;;7.43;28.15;101811.25;5019985;28;20199;-47
2022/03/12 04:18:36;;;;;;;7.43;5.57;;;5.20;28.20;;;7.45;27.89;101810.16;5020089;28;20230;-46
2022/03/12 04:21:05;;;;;;;7.23;5.23;;;5.20;28.20;;;7.40;28.25;101814.94;5023279;28;20283;-47
2022/03/12 04:23:32;;;;;;;6.87;5.40;;;5.20;27.90;;;7.40;28.00;101814.09;5021962;28;20507;-47
2022/03/12 04:26:00;;;;;;;6.40;5.00;;;5.20;27.90;;;7.44;27.88;101818.94;5020959;28;20200;-47
2022/03/12 04:28:33;;;;;;;6.73;5.17;;;5.20;27.90;;;7.44;28.05;101812.91;5021942;28;20187;-47
2022/03/12 04:31:02;;;;;;;6.73;5.00;;;5.20;28.30;;;7.44;28.00;101802.44;5020367;28;20580;-47
2022/03/12 04:33:32;;;;;;;7.17;5.43;;;5.20;27.70;;;7.38;27.63;101818.63;5019966;28;20254;-45
2022/03/12 04:36:03;;;;;;;6.67;5.10;;;5.20;27.70;;;7.40;28.13;101811.47;5020874;28;20633;-45
2022/03/12 04:38:31;;;;;;;8.60;5.53;;;5.20;27.70;;;7.42;28.08;101809.56;5023987;28;20184;-48
2022/03/12 04:40:59;;;;;;;6.17;4.53;;;5.20;27.70;;;7.37;27.89;101811.72;5025479;28;20512;-49
2022/03/12 04:43:29;;;;;;;9.13;5.57;;;5.20;27.60;;;7.35;27.77;101808.41;5027632;28;20198;-47
2022/03/12 04:45:59;;;;;;;9.10;5.20;;;5.20;27.60;;;7.38;28.29;101814.25;5030197;28;20179;-46
2022/03/12 04:48:32;;;;;;;6.53;5.10;;;5.20;27.70;;;7.38;27.99;101821.25;5026149;28;20216;-48
2022/03/12 04:51:00;;;;;;;5.67;4.90;;;5.20;27.70;;;7.36;27.89;101821.41;5024554;28;20561;-46
2022/03/12 04:53:29;;;;;;;6.70;4.83;;;5.20;27.70;;;7.39;28.12;101822.94;5018548;28;20243;-47
2022/03/12 04:55:56;;;;;;;8.13;5.57;;;5.20;27.70;;;7.39;27.94;101821.13;5019797;28;20202;-48
2022/03/12 04:58:23;;;;;;;7.63;5.27;;;5.20;27.80;;;7.40;27.65;101819.34;5019928;28;20219;-46
2022/03/12 05:00:51;;;;;;;7.30;5.87;;;5.20;27.80;;;7.39;28.08;101825.56;5018648;28;20188;-46
2022/03/12 05:03:22;;;;;;;6.47;4.90;;;5.10;27.70;;;7.40;28.32;101821.97;5019410;28;20576;-46
2022/03/12 05:05:51;;;;;;;6.97;4.83;;;5.20;27.70;;;7.40;27.99;101821.97;5019187;28;20550;-46
2022/03/12 05:08:22;;;;;;;6.00;4.83;;;5.10;27.70;;;7.45;28.00;101830.25;5033781;28;20239;-46
2022/03/12 05:10:52;;;;;;;5.80;4.70;;;5.10;27.70;;;7.40;27.55;101832.44;5020820;28;20196;-45
2022/03/12 05:13:27;;;;;;;7.10;4.77;;;5.10;27.70;;;7.39;27.38;101825.56;5023000;28;20216;-47
2022/03/12 05:16:00;;;;;;;7.20;5.03;;;5.10;27.80;;;7.34;27.88;101825.09;5028615;28;20336;-46
2022/03/12 05:18:28;;;;;;;7.70;5.10;;;5.10;27.80;;;7.37;27.89;101833.50;5038436;28;20303;-46
2022/03/12 05:20:56;;;;;;;9.27;5.13;;;5.10;27.80;;;7.34;27.92;101836.41;5037076;28;20194;-47
2022/03/12 05:23:25;;;;;;;7.00;4.83;;;5.10;27.80;;;7.34;28.24;101835.56;5037485;28;20192;-48
2022/03/12 05:25:53;;;;;;;9.00;5.23;;;5.10;27.80;;;7.39;27.69;101836.03;5037495;28;20214;-45
2022/03/12 05:28:25;;;;;;;7.17;5.00;;;5.10;27.80;;;7.39;28.03;101842.06;5036757;28;20221;-45
2022/03/12 05:30:57;;;;;;;6.77;4.63;;;5.10;27.90;;;7.39;27.59;101838.66;5036152;28;20190;-47
2022/03/12 05:33:26;;;;;;;12.70;5.33;;;5.10;27.80;;;7.38;28.14;101839.59;5023070;28;20639;-46
2022/03/12 05:35:54;;;;;;;7.27;5.00;;;5.10;28.40;;;7.33;27.95;101842.59;5038487;28;20670;-47
2022/03/12 05:38:37;;;;;;;7.93;5.07;;;5.00;27.90;;;7.31;28.06;101848.91;5038973;28;20733;-47
2022/03/12 05:41:10;;;;;;;7.53;5.10;;;5.00;27.90;;;7.27;28.32;101852.75;5040678;28;20203;-47
2022/03/12 05:43:40;;;;;;;8.47;5.27;;;5.00;27.90;;;7.27;27.57;101857.97;5041800;28;20585;-46
2022/03/12 05:46:07;;;;;;;8.77;5.60;;;5.00;28.00;;;7.20;27.79;101862.06;5038003;28;20206;-46
2022/03/12 05:48:34;;;;;;;6.23;4.47;;;5.00;28.10;;;7.19;28.50;101860.38;5038307;28;20204;-46
2022/03/12 05:51:02;;;;;;;7.53;4.93;;;5.00;28.10;;;7.15;28.16;101869.44;5037131;28;20190;-46
2022/03/12 05:53:35;;;;;;;6.40;4.27;;;4.90;28.10;;;7.16;28.59;101860.63;5037651;28;20231;-47
2022/03/12 05:56:04;;;;;;;5.53;4.90;;;4.90;28.10;;;7.16;28.42;101863.25;5038044;28;20273;-47
2022/03/12 05:58:38;;;;;;;6.23;5.30;;;4.90;28.10;;;7.13;28.54;101860.91;5037947;28;20629;-47
2022/03/12 06:01:05;;;;;;;9.97;4.97;;;4.90;28.10;;;7.19;27.74;101865.63;5037619;28;20191;-47
2022/03/12 06:03:33;;;;;;;7.07;4.80;;;4.90;28.10;;;7.18;28.29;101863.97;5037719;28;20209;-46
2022/03/12 06:06:00;;;;;;;7.33;5.47;;;4.90;28.20;;;7.14;28.34;101866.00;5021049;28;20690;-46
2022/03/12 06:08:29;;;;;;;6.10;5.47;;;4.90;28.20;;;7.16;27.59;101873.72;5018314;28;20279;-48
2022/03/12 06:10:57;;;;;;;5.80;4.70;;;4.90;28.10;;;7.25;27.79;101865.13;5017001;28;20255;-48
2022/03/12 06:13:30;;;;;;;7.40;5.00;;;4.90;28.20;;;7.22;28.46;101868.00;5016767;28;20219;-46
2022/03/12 06:16:00;;;;;;;8.20;5.27;;;4.90;28.30;;;7.26;27.82;101872.84;5016141;28;20227;-46
2022/03/12 06:18:30;;;;;;;7.33;5.17;;;4.90;28.30;;;7.28;27.63;101870.09;5014976;28;20674;-48
2022/03/12 06:20:58;;;;;;;5.77;4.80;;;4.90;28.40;;;7.22;27.85;101874.06;5016981;28;20199;-46
2022/03/12 06:23:26;;;;;;;6.93;4.67;;;4.90;28.40;;;7.20;28.07;101872.53;5016020;28;20225;-48
2022/03/12 06:25:55;;;;;;;7.63;4.90;;;4.90;28.40;;;7.27;28.21;101878.94;5015431;28;20203;-46
2022/03/12 06:28:23;;;;;;;6.57;4.50;;;4.90;28.40;;;7.30;27.92;101883.88;5014860;28;20207;-47
2022/03/12 06:30:53;;;;;;;7.13;4.60;;;4.90;28.40;;;7.35;28.25;101881.72;5031016;28;20267;-46
2022/03/12 06:33:22;;;;;;;7.33;4.57;;;5.00;28.40;;;7.41;27.83;101891.72;5015688;28;20697;-47
2022/03/12 06:35:52;;;;;;;8.87;5.03;;;5.00;28.40;;;7.38;28.08;101887.56;5015149;28;20664;-48
2022/03/12 06:38:24;;;;;;;10.67;5.07;;;4.90;28.40;;;7.37;27.79;101890.28;5015739;28;20686;-46
2022/03/12 06:40:56;;;;;;;5.13;4.63;;;5.00;28.30;;;7.40;27.87;101900.53;5014961;28;20219;-47
2022/03/12 06:43:28;;;;;;;6.83;4.83;;;5.00;28.30;;;7.41;28.33;101897.78;5014811;28;20189;-46
2022/03/12 06:46:01;;;;;;;6.10;4.47;;;5.00;28.30;;;7.43;27.84;101900.28;5014508;28;20677;-48
2022/03/12 06:48:32;;;;;;;7.23;4.90;;;5.00;28.10;;;7.39;27.46;101899.69;5014865;28;20294;-48
2022/03/12 06:51:00;;;;;;;6.47;4.87;;;5.00;28.20;;;7.39;27.74;101899.69;5014841;28;20673;-46
2022/03/12 06:53:27;;;;;;;7.73;5.20;;;5.10;28.20;;;7.42;27.69;101903.84;5014822;28;20227;-48
2022/03/12 06:55:56;;;;;;;8.07;5.20;;;5.00;28.20;;;7.40;28.42;101906.59;5016563;28;20230;-48
2022/03/12 06:58:26;;;;;;;7.03;4.60;;;5.10;28.30;;;7.35;27.94;101913.16;5013868;28;20246;-48
2022/03/12 07:00:53;;;;;;;6.70;4.90;;;5.10;28.30;;;7.39;28.58;101910.16;5014290;28;20196;-48
2022/03/12 07:03:21;;;;;;;6.67;4.50;;;5.10;28.30;;;7.44;28.25;101907.19;5014563;28;20219;-49
2022/03/12 07:05:48;;;;;;;5.83;4.57;;;5.10;28.30;;;7.45;27.90;101908.84;5014593;28;20276;-48
2022/03/12 07:08:16;;;;;;;6.63;4.50;;;5.10;28.30;;;7.50;28.37;101906.69;5014192;28;20245;-46
2022/03/12 07:10:46;;;;;;;7.90;4.90;;;5.10;28.30;;;7.51;28.21;101921.44;5015932;28;20340;-45
2022/03/12 07:13:13;;;;;;;8.00;5.27;;;5.20;28.40;;;7.55;28.54;101925.47;5014220;28;20239;-46
2022/03/12 07:15:42;;;;;;;6.33;4.57;;;5.20;28.30;;;7.72;28.19;101922.31;5013934;28;20216;-46
2022/03/12 07:18:09;;;;;;;5.67;4.50;;;5.30;28.20;;;7.90;28.05;101928.63;5014263;28;20215;-47
2022/03/12 07:20:37;;;;;;;5.73;4.53;;;5.50;28.20;;;7.99;27.87;101930.47;5014270;28;20201;-48
2022/03/12 07:23:04;;;;;;;7.50;4.77;;;5.60;27.90;;;8.19;27.31;101932.25;5013214;28;20250;-47
2022/03/12 07:25:32;;;;;;;7.87;4.67;;;5.80;27.80;;;8.46;26.88;101934.34;5014528;28;20223;-46
2022/03/12 07:28:00;;;;;;;7.47;4.73;;;5.90;27.50;;;8.69;26.98;101935.84;5021138;28;20751;-47
2022/03/12 07:30:27;;;;;;;6.50;4.60;;;6.20;27.40;;;8.93;26.39;101938.13;5033360;28;20534;-49
2022/03/12 07:32:56;;;;;;;9.20;5.00;;;6.40;27.00;;;9.03;26.32;101944.25;5033264;28;20194;-48
2022/03/12 07:35:27;;;;;;;6.13;5.03;;;6.50;26.60;;;9.20;26.17;101940.94;5033915;28;20202;-47
2022/03/12 07:37:54;;;;;;;7.73;5.10;;;6.70;26.40;;;9.37;25.81;101947.31;5033194;28;20238;-51
2022/03/12 07:40:22;;;;;;;9.10;5.10;;;6.90;26.20;;;9.57;25.54;101945.53;5033756;28;20202;-48
2022/03/12 07:42:50;;;;;;;7.63;5.40;;;7.10;26.10;;;9.85;25.35;101940.25;5033808;28;20221;-48
2022/03/12 07:45:19;;;;;;;5.53;4.47;;;7.30;25.90;;;10.14;24.99;101942.88;5032652;28;20199;-47
2022/03/12 07:47:49;;;;;;;6.47;4.90;;;7.50;25.60;;;10.26;24.95;101931.22;5034077;28;20257;-48
2022/03/12 07:50:19;;;;;;;6.00;5.17;;;7.70;25.20;;;10.45;24.59;101940.84;5034130;28;20206;-48
2022/03/12 07:52:47;;;;;;;7.77;4.87;;;7.90;25.00;;;10.51;24.46;101935.00;5033293;28;20284;-48
2022/03/12 07:55:16;;;;;;;5.77;4.63;;;8.00;24.80;;;10.64;24.34;101935.50;5033305;28;20261;-46
2022/03/12 07:57:44;;;;;;;6.30;4.70;;;8.10;24.50;;;10.76;24.14;101929.94;5032856;28;20218;-49
2022/03/12 08:00:15;;;;;;;6.40;4.93;;;8.30;24.30;;;10.89;23.89;101940.09;5027485;28;20274;-47
2022/03/12 08:02:44;;;;;;;7.00;4.70;;;8.40;24.20;;;11.02;23.19;101935.31;5013637;28;20214;-49
2022/03/12 08:05:21;;;;;;;5.23;4.73;;;8.50;23.90;;;11.11;23.88;101930.97;5013373;28;20186;-49
2022/03/12 08:07:49;;;;;;;7.23;4.80;;;8.60;23.90;;;11.47;23.35;101930.00;5012928;28;20218;-46
2022/03/12 08:10:16;;;;;;;4.93;4.33;;;8.80;24.00;;;11.72;23.28;101933.72;5013560;28;20267;-50
2022/03/12 08:12:45;;;;;;;5.73;4.80;;;9.00;23.60;;;11.93;22.65;101937.66;5013643;28;20209;-49
2022/03/12 08:15:15;;;;;;;8.33;4.83;;;9.20;23.50;;;12.02;22.78;101941.22;5013594;28;20273;-49
2022/03/12 08:17:43;;;;;;;5.70;4.37;;;9.40;23.30;;;12.42;22.89;101946.75;5028241;28;20719;-47
2022/03/12 08:20:11;;;;;;;8.37;5.07;;;9.60;23.50;;;12.82;22.31;101951.41;5013388;28;20612;-48
2022/03/12 08:22:45;;;;;;;5.43;4.47;;;9.80;23.20;;;13.06;21.87;101948.88;5013427;28;20191;-48
2022/03/12 08:25:14;;;;;;;5.70;4.73;;;10.10;22.00;;;13.37;21.40;101947.31;5013452;28;20699;-48
2022/03/12 08:27:42;;;;;;;6.27;4.73;;;10.30;21.90;;;13.58;20.91;101945.00;5012963;28;20642;-47
2022/03/12 08:30:14;;;;;;;7.80;5.17;;;10.50;21.60;;;13.81;21.24;101945.16;5013749;28;20277;-49
2022/03/12 08:32:42;;;;;;;6.47;4.97;;;10.80;21.60;;;14.22;21.09;101941.50;5014683;28;20242;-49
2022/03/12 08:35:12;;;;;;;7.27;4.80;;;11.00;21.70;;;14.75;20.59;101940.88;5015620;28;20219;-46
2022/03/12 08:37:41;;;;;;;6.70;5.20;;;11.40;21.50;;;15.05;19.86;101938.44;5017215;28;20207;-48
2022/03/12 08:40:14;;;;;;;6.27;4.80;;;11.70;20.80;;;15.32;19.69;101943.22;5017280;28;20551;-49
2022/03/12 08:42:42;;;;;;;7.10;5.10;;;12.00;20.50;;;15.59;19.25;101942.75;5017622;28;20206;-47
2022/03/12 08:45:11;;;;;;;6.27;4.93;;;12.30;20.20;;;15.95;19.19;101946.41;5017308;28;20245;-48
2022/03/12 08:47:39;;;;;;;7.47;4.83;;;12.50;20.10;;;16.38;18.88;101952.00;5017446;28;20207;-49
2022/03/12 08:50:11;;;;;;;8.17;5.30;;;12.90;20.10;;;16.86;18.98;101949.59;5018832;28;20275;-48
2022/03/12 08:52:39;;;;;;;7.97;5.37;;;13.30;20.20;;;17.49;18.35;101948.91;5017039;28;20198;-48
2022/03/12 08:55:10;;;;;;;5.53;5.03;;;13.60;19.70;;;17.71;17.77;101952.38;5017474;28;20242;-49
2022/03/12 08:57:39;;;;;;;5.47;4.97;;;13.90;19.10;;;17.96;17.66;101950.16;5015952;28;20289;-48
2022/03/12 09:00:11;;;;;;;10.83;5.33;;;14.20;18.80;;;18.15;17.29;101946.81;5016449;28;20590;-49
2022/03/12 09:02:40;;;;;;;5.50;5.00;;;14.50;18.50;;;18.36;17.17;101946.75;5016434;28;20194;-49
2022/03/12 09:05:12;;;;;;;6.23;4.60;;;14.70;18.30;;;18.69;17.07;101947.78;5016557;28;20211;-46
2022/03/12 09:07:41;;;;;;;5.97;4.47;;;15.00;18.40;;;19.06;16.85;101948.34;5016570;28;20219;-49
2022/03/12 09:10:13;;;;;;;8.37;5.67;;;15.30;18.10;;;19.43;16.57;101947.84;5016768;28;20195;-49
2022/03/12 09:12:41;;;;;;;9.37;5.27;;;15.60;18.00;;;19.59;16.54;101940.28;5016273;28;20191;-50
2022/03/12 09:15:10;;;;;;;6.60;4.97;;;15.80;17.60;;;20.01;16.22;101938.25;5016012;28;20302;-50
2022/03/12 09:17:38;;;;;;;4.80;4.30;;;16.10;17.60;;;20.40;16.20;101937.38;5015932;28;20281;-50
2022/03/12 09:20:08;;;;;;;5.70;5.03;;;16.40;17.80;;;20.85;15.28;101939.06;5016062;28;20223;-49
2022/03/12 09:22:35;;;;;;;5.87;5.27;;;16.70;17.10;;;21.06;14.76;101944.16;5018741;28;20538;-50
2022/03/12 09:25:04;;;;;;;5.20;4.80;;;17.00;16.70;;;21.18;15.29;101938.97;5036074;28;20641;-51
2022/03/12 09:27:33;;;;;;;7.43;4.90;;;17.20;17.00;;;21.56;15.52;101940.56;5035505;28;20238;-50
2022/03/12 09:30:00;;;;;;;6.77;4.97;;;17.50;17.30;;;22.10;14.95;101942.63;5035750;28;20281;-49
2022/03/12 09:32:31;;;;;;;6.43;5.10;;;17.90;17.10;;;22.49;14.38;101941.38;5035687;28;20194;-50
2022/03/12 09:34:58;;;;;;;8.23;5.60;;;18.20;16.70;;;22.63;14.38;101950.97;5035419;28;20297;-50
2022/03/12 09:37:26;;;;;;;7.20;5.90;;;18.40;16.00;;;22.81;13.94;101937.53;5035662;28;20711;-48
2022/03/12 09:39:53;;;;;;;5.50;5.00;;;18.60;15.50;;;22.84;14.00;101937.06;5026384;28;20213;-49
2022/03/12 09:42:23;;;;;;;6.53;5.87;;;18.80;15.60;;;22.99;14.02;101941.25;5015686;28;20202;-50
2022/03/12 09:44:51;;;;;;;6.30;5.40;;;19.00;16.00;;;23.29;13.85;101936.69;5015508;28;20219;-52
2022/03/12 09:47:19;;;;;;;5.60;5.03;;;19.20;15.60;;;23.55;13.82;101941.69;5014315;28;20209;-52
2022/03/12 09:49:46;;;;;;;5.80;5.30;;;19.40;15.70;;;23.79;13.61;101932.63;5016900;28;20223;-49
2022/03/12 09:52:14;;;;;;;6.97;5.73;;;19.60;15.50;;;24.14;13.11;101929.97;5015648;28;20267;-50
2022/03/12 09:54:41;;;;;;;5.90;5.30;;;19.90;15.30;;;24.33;13.18;101927.97;5015508;28;20215;-49
2022/03/12 09:57:09;;;;;;;5.70;5.17;;;20.00;15.00;;;24.42;13.33;101927.34;5016047;28;20211;-50
2022/03/12 09:59:36;;;;;;;5.57;4.97;;;20.20;15.10;;;24.57;12.87;101932.25;5015358;28;20195;-51
2022/03/12 10:02:05;;;;;;;6.83;5.60;;;20.40;14.90;;;24.79;12.59;101933.28;5017456;28;20625;-49
2022/03/12 10:04:32;;;;;;;7.70;5.33;;;20.50;15.00;;;24.79;12.89;101933.28;5016677;28;20711;-50
2022/03/12 10:07:00;;;;;;;7.33;5.50;;;20.70;14.90;;;25.08;13.06;101934.91;5015446;28;20290;-51
2022/03/12 10:09:27;;;;;;;5.17;4.77;;;20.80;15.10;;;25.21;12.97;101941.91;5015217;28;20199;-50
2022/03/12 10:11:55;;;;;;;6.60;6.00;;;21.00;15.00;;;25.18;12.96;101940.50;5014856;28;20207;-49
2022/03/12 10:14:24;;;;;;;5.57;5.07;;;21.10;14.70;;;25.30;12.94;101933.19;5014615;28;20640;-48
2022/03/12 10:16:52;;;;;;;5.93;5.33;;;21.20;14.70;;;25.59;12.57;101923.19;5014107;28;20227;-51
2022/03/12 10:19:21;;;;;;;7.60;6.87;;;21.30;15.00;;;25.77;12.26;101919.44;5015017;28;20281;-50
2022/03/12 10:21:52;;;;;;;6.20;5.60;;;21.50;14.80;;;25.93;12.62;101919.44;5014858;28;20266;-50
2022/03/12 10:24:20;;;;;;;6.00;5.47;;;21.60;14.40;;;26.04;12.04;101917.69;5030330;28;20198;-49
2022/03/12 10:26:47;;;;;;;6.43;5.57;;;21.80;14.60;;;26.15;12.38;101922.19;5014439;28;20588;-50
2022/03/12 10:29:14;;;;;;;8.10;5.57;;;21.80;14.20;;;26.39;12.58;101930.88;5021462;28;20637;-51
2022/03/12 10:31:42;;;;;;;6.70;6.07;;;22.00;14.50;;;26.51;12.19;101924.28;5035546;28;20290;-49
2022/03/12 10:34:19;;;;;;;10.03;7.50;;;22.20;14.50;;;26.63;12.16;101919.59;5034963;28;20210;-49